createdAt,value
2018-07-23T00:00:24.820Z,26.90
2018-07-23T00:02:53.501Z,27.03
2018-07-23T00:05:21.665Z,27.37
2018-07-23T00:07:49.823Z,26.57
2018-07-23T00:10:18.057Z,27.23
2018-07-23T00:12:46.354Z,28.80
2018-07-23T00:15:15.485Z,29.20
2018-07-23T00:17:43.656Z,30.43
2018-07-23T00:20:11.860Z,27.97
2018-07-23T00:22:41.230Z,28.33
2018-07-23T00:25:09.493Z,26.70
2018-07-23T00:27:37.664Z,25.83
2018-07-23T00:30:06.679Z,28.33
2018-07-23T00:32:35.093Z,28.47
2018-07-23T00:35:04.229Z,27.60
2018-07-23T00:37:32.812Z,27.03
2018-07-23T00:40:01.273Z,27.27
2018-07-23T00:42:29.526Z,28.90
2018-07-23T00:44:57.693Z,29.27
2018-07-23T00:47:25.866Z,28.80
2018-07-23T00:49:54.070Z,30.00
2018-07-23T00:52:22.316Z,29.80
2018-07-23T00:54:50.769Z,30.03
2018-07-23T00:57:18.971Z,30.27
2018-07-23T00:59:53.890Z,32.07
2018-07-23T01:02:22.069Z,29.37
2018-07-23T01:04:51.377Z,29.57
2018-07-23T01:07:19.555Z,31.07
2018-07-23T01:09:47.832Z,30.97
2018-07-23T01:12:28.897Z,31.33
2018-07-23T01:14:57.129Z,33.00
2018-07-23T01:17:26.347Z,32.27
2018-07-23T01:19:56.440Z,35.47
2018-07-23T01:22:25.809Z,33.80
2018-07-23T01:24:55.870Z,33.77
2018-07-23T01:27:24.077Z,36.43
2018-07-23T01:29:52.246Z,36.67
2018-07-23T01:32:20.875Z,36.17
2018-07-23T01:34:49.334Z,39.90
2018-07-23T01:37:18.408Z,39.77
2018-07-23T01:39:46.607Z,37.63
2018-07-23T01:42:14.797Z,33.87
2018-07-23T01:44:42.978Z,31.00
2018-07-23T01:47:11.436Z,30.40
2018-07-23T01:49:40.078Z,30.80
2018-07-23T01:52:08.236Z,30.90
2018-07-23T01:54:36.453Z,31.53
2018-07-23T01:57:04.629Z,33.20
2018-07-23T01:59:32.792Z,33.93
2018-07-23T02:02:01.521Z,37.13
2018-07-23T02:04:30.137Z,36.97
2018-07-23T02:06:58.365Z,36.93
2018-07-23T02:09:26.828Z,36.00
2018-07-23T02:11:55.064Z,38.73
2018-07-23T02:14:23.258Z,38.17
2018-07-23T02:16:51.532Z,37.90
2018-07-23T02:19:20.138Z,38.43
2018-07-23T02:21:48.347Z,39.80
2018-07-23T02:24:16.580Z,39.50
2018-07-23T02:26:45.573Z,39.90
2018-07-23T02:29:14.283Z,39.03
2018-07-23T02:31:43.221Z,37.73
2018-07-23T02:34:11.389Z,37.20
2018-07-23T02:36:40.351Z,37.67
2018-07-23T02:39:10.771Z,38.37
2018-07-23T02:41:41.202Z,37.67
2018-07-23T02:44:09.377Z,36.43
2018-07-23T02:46:37.773Z,39.90
2018-07-23T02:49:06.015Z,42.53
2018-07-23T02:51:35.065Z,41.33
2018-07-23T02:54:03.999Z,44.90
2018-07-23T02:56:32.204Z,43.63
2018-07-23T02:59:00.436Z,44.37
2018-07-23T03:01:28.656Z,43.93
2018-07-23T03:03:57.241Z,44.77
2018-07-23T03:06:28.418Z,45.47
2018-07-23T03:08:57.690Z,45.70
2018-07-23T03:11:26.698Z,45.27
2018-07-23T03:13:55.312Z,43.07
2018-07-23T03:16:23.690Z,41.47
2018-07-23T03:18:51.991Z,41.57
2018-07-23T03:21:21.168Z,41.60
2018-07-23T03:23:49.371Z,39.50
2018-07-23T03:26:17.592Z,38.77
2018-07-23T03:28:47.269Z,40.00
2018-07-23T03:31:15.450Z,38.93
2018-07-23T03:33:43.632Z,40.80
2018-07-23T03:36:12.184Z,40.33
2018-07-23T03:38:40.354Z,37.80
2018-07-23T03:41:09.113Z,36.57
2018-07-23T03:43:37.567Z,41.00
2018-07-23T03:46:06.084Z,43.23
2018-07-23T03:48:35.187Z,42.47
2018-07-23T03:51:03.388Z,43.47
2018-07-23T03:53:31.590Z,42.20
2018-07-23T03:55:59.786Z,41.57
2018-07-23T03:58:28.008Z,40.57
2018-07-23T04:00:56.208Z,40.77
2018-07-23T04:03:25.082Z,39.30
2018-07-23T04:05:53.318Z,38.90
2018-07-23T04:08:21.602Z,39.33
2018-07-23T04:10:49.884Z,40.57
2018-07-23T04:13:18.450Z,40.53
2018-07-23T04:15:47.736Z,38.93
2018-07-23T04:18:16.229Z,37.00
2018-07-23T04:20:44.408Z,36.37
2018-07-23T04:23:12.922Z,34.50
2018-07-23T04:25:41.780Z,34.67
2018-07-23T04:28:09.996Z,36.80
2018-07-23T04:30:38.207Z,36.77
2018-07-23T04:33:06.996Z,36.93
2018-07-23T04:35:36.096Z,37.53
2018-07-23T04:38:04.333Z,37.73
2018-07-23T04:40:32.896Z,37.60
2018-07-23T04:43:02.668Z,36.47
2018-07-23T04:45:30.919Z,37.00
2018-07-23T04:48:00.047Z,35.67
2018-07-23T04:50:35.669Z,36.43
2018-07-23T04:53:04.880Z,35.03
2018-07-23T04:55:33.173Z,35.07
2018-07-23T04:58:01.603Z,37.17
2018-07-23T05:00:30.081Z,35.53
2018-07-23T05:02:58.643Z,38.00
2018-07-23T05:05:29.013Z,36.40
2018-07-23T05:07:57.267Z,35.73
2018-07-23T05:10:25.649Z,34.60
2018-07-23T05:12:53.896Z,33.53
2018-07-23T05:15:22.121Z,35.03
2018-07-23T05:17:50.984Z,34.27
2018-07-23T05:20:19.221Z,34.97
2018-07-23T05:22:47.744Z,32.73
2018-07-23T05:25:16.226Z,36.07
2018-07-23T05:27:44.521Z,35.67
2018-07-23T05:30:12.692Z,35.47
2018-07-23T05:32:41.328Z,35.63
2018-07-23T05:35:10.112Z,36.47
2018-07-23T05:37:38.692Z,34.77
2018-07-23T05:40:07.385Z,34.27
2018-07-23T05:42:36.202Z,33.87
2018-07-23T05:45:06.129Z,34.33
2018-07-23T05:47:34.574Z,35.30
2018-07-23T05:50:04.525Z,35.37
2018-07-23T05:52:33.076Z,33.50
2018-07-23T05:55:01.464Z,32.37
2018-07-23T05:57:29.762Z,33.23
2018-07-23T05:59:58.049Z,34.60
2018-07-23T06:02:27.772Z,33.97
2018-07-23T06:04:55.931Z,32.60
2018-07-23T06:07:24.198Z,31.50
2018-07-23T06:09:52.465Z,31.47
2018-07-23T06:12:20.897Z,30.87
2018-07-23T06:14:49.138Z,31.50
2018-07-23T06:17:17.348Z,31.77
2018-07-23T06:19:45.581Z,33.03
2018-07-23T06:22:14.087Z,31.87
2018-07-23T06:24:42.478Z,32.17
2018-07-23T06:27:10.943Z,36.73
2018-07-23T06:29:39.473Z,31.47
2018-07-23T06:32:08.331Z,31.23
2018-07-23T06:34:36.601Z,30.33
2018-07-23T06:37:04.838Z,28.40
2018-07-23T06:39:33.352Z,28.17
2018-07-23T06:42:02.032Z,28.93
2018-07-23T06:44:30.285Z,29.67
2018-07-23T06:46:58.914Z,30.27
2018-07-23T06:49:27.213Z,30.07
2018-07-23T06:51:55.585Z,32.17
2018-07-23T06:54:24.171Z,31.87
2018-07-23T06:56:52.425Z,31.33
2018-07-23T06:59:21.048Z,30.87
2018-07-23T07:01:49.233Z,32.43
2018-07-23T07:04:17.676Z,48.40
2018-07-23T07:06:46.071Z,31.57
2018-07-23T07:09:14.325Z,34.13
2018-07-23T07:11:42.746Z,32.93
2018-07-23T07:14:11.041Z,30.93
2018-07-23T07:16:39.605Z,34.10
2018-07-23T07:19:07.860Z,31.50
2018-07-23T07:21:36.321Z,34.63
2018-07-23T07:24:05.228Z,30.90
2018-07-23T07:26:33.808Z,29.63
2018-07-23T07:29:02.154Z,30.60
2018-07-23T07:31:30.935Z,33.30
2018-07-23T07:33:59.148Z,34.30
2018-07-23T07:36:27.561Z,35.93
2018-07-23T07:38:56.490Z,37.33
2018-07-23T07:41:25.005Z,34.97
2018-07-23T07:43:53.286Z,36.80
2018-07-23T07:46:21.879Z,33.67
2018-07-23T07:48:50.150Z,35.20
2018-07-23T07:51:18.402Z,37.10
2018-07-23T07:53:47.255Z,37.83
2018-07-23T07:56:15.470Z,39.10
2018-07-23T07:58:43.794Z,39.70
2018-07-23T08:01:12.513Z,41.23
2018-07-23T08:03:40.852Z,39.27
2018-07-23T08:06:09.587Z,46.87
2018-07-23T08:08:38.169Z,37.80
2018-07-23T08:11:06.840Z,37.90
2018-07-23T08:13:36.229Z,40.30
2018-07-23T08:16:04.739Z,38.03
2018-07-23T08:18:33.515Z,36.00
2018-07-23T08:21:02.849Z,38.57
2018-07-23T08:23:31.939Z,36.17
2018-07-23T08:26:00.539Z,36.00
2018-07-23T08:28:28.852Z,34.53
2018-07-23T08:30:57.107Z,33.17
2018-07-23T08:33:26.653Z,36.07
2018-07-23T08:35:54.864Z,32.60
2018-07-23T08:38:23.105Z,31.97
2018-07-23T08:40:51.537Z,32.30
2018-07-23T08:43:20.378Z,36.03
2018-07-23T08:45:49.566Z,31.07
2018-07-23T08:48:17.797Z,32.00
2018-07-23T08:50:46.688Z,31.90
2018-07-23T08:53:15.073Z,32.47
2018-07-23T08:55:43.324Z,32.40
2018-07-23T08:58:12.174Z,31.33
2018-07-23T09:00:41.052Z,30.50
2018-07-23T09:03:09.406Z,33.33
2018-07-23T09:05:38.114Z,33.30
2018-07-23T09:08:06.445Z,35.00
2018-07-23T09:10:34.618Z,31.90
2018-07-23T09:13:03.101Z,32.73
2018-07-23T09:15:31.792Z,31.07
2018-07-23T09:18:00.364Z,30.60
2018-07-23T09:20:28.808Z,29.90
2018-07-23T09:22:57.038Z,28.33
2018-07-23T09:25:31.051Z,31.33
2018-07-23T09:27:59.289Z,30.77
2018-07-23T09:30:33.483Z,30.70
2018-07-23T09:33:01.686Z,29.20
2018-07-23T09:35:30.063Z,26.63
2018-07-23T09:37:58.306Z,26.20
2018-07-23T09:40:26.514Z,23.47
2018-07-23T09:42:54.753Z,25.67
2018-07-23T09:45:23.701Z,24.00
2018-07-23T09:47:51.903Z,22.80
2018-07-23T09:50:21.642Z,19.30
2018-07-23T09:52:49.875Z,18.50
2018-07-23T09:55:18.098Z,16.73
2018-07-23T09:57:46.700Z,17.63
2018-07-23T10:00:19.569Z,19.07
2018-07-23T10:02:47.742Z,18.80
2018-07-23T10:05:16.243Z,21.10
2018-07-23T10:07:44.926Z,21.53
2018-07-23T10:10:13.134Z,19.17
2018-07-23T10:12:41.617Z,17.70
2018-07-23T10:15:09.834Z,18.50
2018-07-23T10:17:38.181Z,16.50
2018-07-23T10:20:06.458Z,14.57
2018-07-23T10:22:34.970Z,15.47
2018-07-23T10:25:03.616Z,15.83
2018-07-23T10:27:32.174Z,15.47
2018-07-23T10:30:00.535Z,18.40
2018-07-23T10:32:29.160Z,18.73
2018-07-23T10:34:57.857Z,16.10
2018-07-23T10:37:26.259Z,15.90
2018-07-23T10:39:54.479Z,14.03
2018-07-23T10:42:23.448Z,16.30
2018-07-23T10:44:53.466Z,12.17
2018-07-23T10:47:22.617Z,12.70
2018-07-23T10:49:51.437Z,14.10
2018-07-23T10:52:19.598Z,10.80
2018-07-23T10:54:47.814Z,10.33
2018-07-23T10:57:16.081Z,10.53
2018-07-23T10:59:44.712Z,12.53
2018-07-23T11:02:13.597Z,11.33
2018-07-23T11:04:42.166Z,11.70
2018-07-23T11:07:10.408Z,12.77
2018-07-23T11:09:39.203Z,10.80
2018-07-23T11:12:07.860Z,13.30
2018-07-23T11:14:36.169Z,11.97
2018-07-23T11:17:04.673Z,12.23
2018-07-23T11:19:32.901Z,11.00
2018-07-23T11:22:01.090Z,11.80
2018-07-23T11:24:29.426Z,11.33
2018-07-23T11:26:58.242Z,11.60
2018-07-23T11:29:27.103Z,10.73
2018-07-23T11:31:55.347Z,13.00
2018-07-23T11:34:23.880Z,12.20
2018-07-23T11:36:52.080Z,12.00
2018-07-23T11:39:20.301Z,12.93
2018-07-23T11:41:48.478Z,11.70
2018-07-23T11:44:16.767Z,10.77
2018-07-23T11:46:45.563Z,11.87
2018-07-23T11:49:13.756Z,13.93
2018-07-23T11:51:41.940Z,11.20
2018-07-23T11:54:10.861Z,12.33
2018-07-23T11:56:39.220Z,12.20
2018-07-23T11:59:07.781Z,11.00
2018-07-23T12:01:37.659Z,11.10
2018-07-23T12:04:10.406Z,11.57
2018-07-23T12:06:35.681Z,11.40
2018-07-23T12:09:07.381Z,11.00
2018-07-23T12:11:35.897Z,11.40
2018-07-23T12:14:06.132Z,11.53
2018-07-23T12:16:35.012Z,13.17
2018-07-23T12:19:07.084Z,13.17
2018-07-23T12:21:41.230Z,10.47
2018-07-23T12:24:10.873Z,15.30
2018-07-23T12:26:43.554Z,19.07
2018-07-23T12:29:19.140Z,10.03
2018-07-23T12:31:51.183Z,12.27
2018-07-23T12:34:30.907Z,10.80
2018-07-23T12:37:03.897Z,11.90
2018-07-23T12:39:37.106Z,10.43
2018-07-23T12:42:13.073Z,11.13
2018-07-23T12:44:42.393Z,10.40
2018-07-23T12:47:12.136Z,10.10
2018-07-23T12:49:41.860Z,11.43
2018-07-23T12:52:16.472Z,9.47
2018-07-23T12:54:54.980Z,9.23
2018-07-23T12:57:30.235Z,9.00
2018-07-23T13:00:04.328Z,9.83
2018-07-23T13:02:35.295Z,9.33
2018-07-23T13:05:11.332Z,8.93
2018-07-23T13:07:41.538Z,8.97
2018-07-23T13:10:10.084Z,9.17
2018-07-23T13:12:46.098Z,8.97
2018-07-23T13:15:21.217Z,8.47
2018-07-23T13:17:53.409Z,8.67
2018-07-23T13:20:22.211Z,9.47
2018-07-23T13:22:51.204Z,9.80
2018-07-23T13:25:19.594Z,8.67
2018-07-23T13:27:47.898Z,9.37
2018-07-23T13:30:19.599Z,8.80
2018-07-23T13:32:52.814Z,8.57
2018-07-23T13:35:22.781Z,9.73
2018-07-23T13:38:01.038Z,9.57
2018-07-23T13:40:49.878Z,9.70
2018-07-23T13:43:27.104Z,8.63
2018-07-23T13:46:01.869Z,9.07
2018-07-23T13:48:30.311Z,9.03
2018-07-23T13:50:58.841Z,8.83
2018-07-23T13:53:28.575Z,9.60
2018-07-23T13:56:06.007Z,9.40
2018-07-23T13:58:40.940Z,9.07
2018-07-23T14:01:18.695Z,9.53
2018-07-23T14:03:56.908Z,9.30
2018-07-23T14:06:37.970Z,9.57
2018-07-23T14:09:22.652Z,8.50
2018-07-23T14:12:04.835Z,9.10
2018-07-23T14:14:41.062Z,8.88
2018-07-23T14:17:26.736Z,9.93
2018-07-23T14:20:19.539Z,9.67
2018-07-23T14:22:56.614Z,9.37
2018-07-23T14:25:46.212Z,9.23
2018-07-23T14:28:36.824Z,8.63
2018-07-23T14:31:13.929Z,9.10
2018-07-23T14:33:59.293Z,8.77
2018-07-23T14:36:48.374Z,9.03
2018-07-23T14:39:30.342Z,9.33
2018-07-23T14:42:03.038Z,9.20
2018-07-23T14:44:34.783Z,8.80
2018-07-23T14:50:59.607Z,8.83
2018-07-23T14:53:31.060Z,9.83
2018-07-23T14:55:59.516Z,9.20
2018-07-23T14:58:27.655Z,9.07
2018-07-23T15:00:56.042Z,9.40
2018-07-23T15:03:24.274Z,9.30
2018-07-23T15:05:52.521Z,8.73
2018-07-23T15:08:21.796Z,9.17
2018-07-23T15:11:02.250Z,8.93
2018-07-23T15:13:36.162Z,8.77
2018-07-23T15:16:15.467Z,8.80
2018-07-23T15:18:43.865Z,10.93
2018-07-23T15:21:15.791Z,10.87
2018-07-23T15:23:45.898Z,8.87
2018-07-23T15:26:26.578Z,9.13
2018-07-23T15:29:01.204Z,9.17
2018-07-23T15:31:29.472Z,9.37
2018-07-23T15:33:57.661Z,9.23
2018-07-23T15:36:26.202Z,8.63
2018-07-23T15:38:55.371Z,8.07
2018-07-23T15:41:24.446Z,8.80
2018-07-23T15:43:53.548Z,8.63
2018-07-23T15:46:29.774Z,8.90
2018-07-23T15:49:08.272Z,9.03
2018-07-23T15:51:37.149Z,9.30
2018-07-23T15:54:05.840Z,8.67
2018-07-23T15:56:34.358Z,9.00
2018-07-23T15:59:02.766Z,10.10
2018-07-23T16:01:30.979Z,8.73
2018-07-23T16:03:59.562Z,8.87
2018-07-23T16:06:28.063Z,16.70
2018-07-23T16:08:56.421Z,8.03
2018-07-23T16:11:24.733Z,11.60
2018-07-23T16:13:53.147Z,10.80
2018-07-23T16:16:21.874Z,12.70
2018-07-23T16:18:51.457Z,9.30
2018-07-23T16:21:19.692Z,8.73
2018-07-23T16:23:48.574Z,8.50
2018-07-23T16:26:18.247Z,8.57
2018-07-23T16:28:46.474Z,8.20
2018-07-23T16:31:14.636Z,7.37
2018-07-23T16:33:43.188Z,7.93
2018-07-23T16:36:11.814Z,9.13
2018-07-23T16:38:40.460Z,7.83
2018-07-23T16:41:08.706Z,9.03
2018-07-23T16:43:37.256Z,9.50
2018-07-23T16:46:05.868Z,8.40
2018-07-23T16:48:36.985Z,9.03
2018-07-23T16:51:06.075Z,8.87
2018-07-23T16:53:36.399Z,8.80
2018-07-23T16:56:05.373Z,8.67
2018-07-23T16:58:36.629Z,8.93
2018-07-23T17:01:05.051Z,8.63
2018-07-23T17:03:40.634Z,8.53
2018-07-23T17:06:09.322Z,9.20
2018-07-23T17:08:42.230Z,7.90
2018-07-23T17:11:11.251Z,8.10
2018-07-23T17:13:40.432Z,8.60
2018-07-23T17:16:08.705Z,9.53
2018-07-23T17:18:38.357Z,8.53
2018-07-23T17:21:07.260Z,9.50
2018-07-23T17:23:35.672Z,9.07
2018-07-23T17:26:03.876Z,8.53
2018-07-23T17:28:32.083Z,8.53
2018-07-23T17:31:00.300Z,9.00
2018-07-23T17:33:28.770Z,8.50
2018-07-23T17:35:57.960Z,7.80
2018-07-23T17:38:26.572Z,9.50
2018-07-23T17:40:54.740Z,8.00
2018-07-23T17:43:23.342Z,8.60
2018-07-23T17:45:51.693Z,25.73
2018-07-23T17:48:20.353Z,12.47
2018-07-23T17:50:49.332Z,11.03
2018-07-23T17:53:17.430Z,9.03
2018-07-23T17:55:45.897Z,9.27
2018-07-23T17:58:14.464Z,9.40
2018-07-23T18:00:42.945Z,9.63
2018-07-23T18:03:11.712Z,9.10
2018-07-23T18:05:40.992Z,9.27
2018-07-23T18:08:09.379Z,9.70
2018-07-23T18:10:37.599Z,9.20
2018-07-23T18:13:06.120Z,9.77
2018-07-23T18:15:34.616Z,10.00
2018-07-23T18:18:04.002Z,9.10
2018-07-23T18:20:33.125Z,10.00
2018-07-23T18:23:01.650Z,9.43
2018-07-23T18:25:31.444Z,9.47
2018-07-23T18:28:01.571Z,9.90
2018-07-23T18:30:31.021Z,10.03
2018-07-23T18:32:59.322Z,10.20
2018-07-23T18:35:27.555Z,9.37
2018-07-23T18:37:56.309Z,10.63
2018-07-23T18:40:25.363Z,9.63
2018-07-23T18:42:53.886Z,9.20
2018-07-23T18:45:22.151Z,9.87
2018-07-23T18:47:50.690Z,9.73
2018-07-23T18:50:19.444Z,11.90
2018-07-23T18:52:47.704Z,11.20
2018-07-23T18:55:16.196Z,11.17
2018-07-23T18:57:44.535Z,11.60
2018-07-23T19:00:12.968Z,14.43
2018-07-23T19:02:41.599Z,13.30
2018-07-23T19:05:09.854Z,14.77
2018-07-23T19:07:38.386Z,13.67
2018-07-23T19:10:08.737Z,12.60
2018-07-23T19:12:37.764Z,13.00
2018-07-23T19:15:06.768Z,12.80
2018-07-23T19:17:36.934Z,13.80
2018-07-23T19:20:05.521Z,14.50
2018-07-23T19:22:37.028Z,14.37
2018-07-23T19:25:07.525Z,14.43
2018-07-23T19:27:38.219Z,13.03
2018-07-23T19:30:08.683Z,13.63
2018-07-23T19:32:37.233Z,14.27
2018-07-23T19:35:07.848Z,12.77
2018-07-23T19:37:36.067Z,13.50
2018-07-23T19:40:04.328Z,13.20
2018-07-23T19:42:32.692Z,14.90
2018-07-23T19:45:01.481Z,10.73
2018-07-23T19:47:30.099Z,11.40
2018-07-23T19:49:58.280Z,11.30
2018-07-23T19:52:26.496Z,12.50
2018-07-23T19:54:54.700Z,15.10
2018-07-23T19:57:24.705Z,14.67
2018-07-23T19:59:53.074Z,47.40
2018-07-23T20:02:21.521Z,13.70
2018-07-23T20:04:49.694Z,14.70
2018-07-23T20:07:20.370Z,16.30
2018-07-23T20:09:48.564Z,17.17
2018-07-23T20:12:18.148Z,15.57
2018-07-23T20:14:46.486Z,15.90
2018-07-23T20:17:15.572Z,14.63
2018-07-23T20:19:48.685Z,20.13
2018-07-23T20:22:18.135Z,39.83
2018-07-23T20:24:46.309Z,14.90
2018-07-23T20:27:15.706Z,13.53
2018-07-23T20:29:44.144Z,20.47
2018-07-23T20:32:12.793Z,17.57
2018-07-23T20:34:40.991Z,16.30
2018-07-23T20:37:09.510Z,16.00
2018-07-23T20:39:38.005Z,18.80
2018-07-23T20:42:06.284Z,15.37
2018-07-23T20:44:34.533Z,13.27
2018-07-23T20:47:03.829Z,14.93
2018-07-23T20:49:33.377Z,14.50
2018-07-23T20:52:02.615Z,30.73
2018-07-23T20:54:31.159Z,21.07
2018-07-23T20:57:01.847Z,16.17
2018-07-23T20:59:30.068Z,22.00
2018-07-23T21:01:58.541Z,15.90
2018-07-23T21:04:29.240Z,14.60
2018-07-23T21:06:57.340Z,16.47
2018-07-23T21:09:25.688Z,15.43
2018-07-23T21:11:54.200Z,46.30
2018-07-23T21:14:22.748Z,35.03
2018-07-23T21:16:51.001Z,17.43
2018-07-23T21:19:19.163Z,17.20
2018-07-23T21:21:48.115Z,18.67
2018-07-23T21:24:16.284Z,16.00
2018-07-23T21:26:44.541Z,14.40
2018-07-23T21:29:12.984Z,15.10
2018-07-23T21:31:41.883Z,13.90
2018-07-23T21:34:10.188Z,26.03
2018-07-23T21:36:39.471Z,39.67
2018-07-23T21:39:09.678Z,14.70
2018-07-23T21:41:39.360Z,15.07
2018-07-23T21:44:09.232Z,15.80
2018-07-23T21:46:37.405Z,15.50
2018-07-23T21:49:05.780Z,15.63
2018-07-23T21:51:34.845Z,16.53
2018-07-23T21:54:03.126Z,15.30
2018-07-23T21:56:31.876Z,15.40
2018-07-23T21:59:00.409Z,16.07
2018-07-23T22:01:28.914Z,15.60
2018-07-23T22:03:57.476Z,16.27
2018-07-23T22:06:25.955Z,14.90
2018-07-23T22:08:55.483Z,14.83
2018-07-23T22:11:23.681Z,15.17
2018-07-23T22:13:51.924Z,15.13
2018-07-23T22:16:20.193Z,15.00
2018-07-23T22:18:48.444Z,16.27
2018-07-23T22:21:16.648Z,16.43
2018-07-23T22:23:44.878Z,15.27
2018-07-23T22:26:13.695Z,15.30
2018-07-23T22:28:42.516Z,15.03
2018-07-23T22:31:10.615Z,15.50
2018-07-23T22:33:39.525Z,14.97
2018-07-23T22:36:07.740Z,15.57
2018-07-23T22:38:36.864Z,15.57
2018-07-23T22:41:05.144Z,16.60
2018-07-23T22:43:35.303Z,16.43
2018-07-23T22:46:04.384Z,17.87
2018-07-23T22:48:33.147Z,17.77
2018-07-23T22:51:01.941Z,17.60
2018-07-23T22:53:30.502Z,16.37
2018-07-23T22:55:58.856Z,17.37
2018-07-23T22:58:27.229Z,17.40
2018-07-23T23:00:55.756Z,16.57
2018-07-23T23:03:23.987Z,17.20
2018-07-23T23:05:52.227Z,16.43
2018-07-23T23:08:20.915Z,15.67
2018-07-23T23:10:50.375Z,16.33
2018-07-23T23:13:19.339Z,17.17
2018-07-23T23:15:47.586Z,16.60
2018-07-23T23:18:15.793Z,15.53
2018-07-23T23:20:44.529Z,15.50
2018-07-23T23:23:12.699Z,15.57
2018-07-23T23:25:40.877Z,17.10
2018-07-23T23:28:09.076Z,16.37
2018-07-23T23:30:37.253Z,16.17
2018-07-23T23:33:05.771Z,17.13
2018-07-23T23:35:34.040Z,17.23
2018-07-23T23:38:02.229Z,17.33
2018-07-23T23:40:30.719Z,16.63
2018-07-23T23:42:58.919Z,16.87
2018-07-23T23:45:27.140Z,16.23
2018-07-23T23:47:55.944Z,17.00
2018-07-23T23:50:24.079Z,16.20
2018-07-23T23:52:52.749Z,16.67
2018-07-23T23:55:21.196Z,16.83
2018-07-23T23:57:49.711Z,17.63
